Time;durP1;ratioP1;P1;durP2;ratioP2;P2;SDS_P1;SDS_P2;PMS_P1;PMS_P2;Temp;Humidity;BMP_temperature;BMP_pressure;BME280_temperature;BME280_humidity;BME280_pressure;Samples;Min_cycle;Max_cycle;Signal;HPM_P1;HPM_P2
2021/04/01 00:00:52;;;;;;;21.15;12.10;;;14.90;93.00;;;;;;5060690;28;20033;-68
2021/04/01 00:03:19;;;;;;;19.65;12.65;;;15.00;92.30;;;;;;5061626;28;20029;-69
2021/04/01 00:05:45;;;;;;;21.15;13.18;;;15.10;92.20;;;;;;5068446;28;20098;-69
2021/04/01 00:08:10;;;;;;;24.83;14.48;;;15.10;92.40;;;;;;5067643;28;20044;-69
2021/04/01 00:10:40;;;;;;;24.27;13.55;;;15.10;92.50;;;;;;5067536;28;20043;-70
2021/04/01 00:13:06;;;;;;;18.38;10.45;;;15.00;93.10;;;;;;5079303;28;20024;-71
2021/04/01 00:15:37;;;;;;;22.55;11.23;;;14.80;93.40;;;;;;5062372;28;20020;-70
2021/04/01 00:18:05;;;;;;;21.25;12.23;;;14.70;93.20;;;;;;5070314;28;20028;-69
2021/04/01 00:20:31;;;;;;;19.92;11.75;;;14.60;93.00;;;;;;5068489;28;20032;-70
2021/04/01 00:22:57;;;;;;;17.95;11.57;;;14.50;93.10;;;;;;5075484;28;20033;-69
2021/04/01 00:25:23;;;;;;;18.92;12.02;;;14.70;92.90;;;;;;5070460;28;20021;-70
2021/04/01 00:27:49;;;;;;;21.35;12.68;;;14.70;92.60;;;;;;5067556;28;20032;-69
2021/04/01 00:30:15;;;;;;;20.67;12.90;;;14.80;92.50;;;;;;5064516;28;20028;-70
2021/04/01 00:32:41;;;;;;;26.98;15.02;;;14.80;93.00;;;;;;5066000;28;20025;-70
2021/04/01 00:35:07;;;;;;;21.75;13.50;;;14.80;93.40;;;;;;5064438;28;20024;-69
2021/04/01 00:37:33;;;;;;;25.70;15.05;;;14.70;93.80;;;;;;5065359;28;20080;-70
2021/04/01 00:39:59;;;;;;;30.75;15.13;;;14.80;93.60;;;;;;5070370;28;20024;-69
2021/04/01 00:42:26;;;;;;;26.90;16.85;;;14.80;93.70;;;;;;5072273;28;20025;-68
2021/04/01 00:44:52;;;;;;;29.17;17.77;;;14.80;93.60;;;;;;5076187;28;20025;-70
2021/04/01 00:47:17;;;;;;;29.98;17.60;;;14.80;93.70;;;;;;5067657;28;20112;-69
2021/04/01 00:49:43;;;;;;;27.55;13.95;;;14.70;94.10;;;;;;5068732;28;20124;-70
2021/04/01 00:52:09;;;;;;;21.13;13.23;;;14.60;94.60;;;;;;5066706;28;20025;-71
2021/04/01 00:54:39;;;;;;;16.73;11.50;;;14.50;94.70;;;;;;5066116;28;20393;-70
2021/04/01 00:57:05;;;;;;;21.70;11.13;;;14.50;94.70;;;;;;5069317;28;20550;-71
2021/04/01 00:59:32;;;;;;;23.00;12.45;;;14.30;94.60;;;;;;5067383;28;20021;-70
2021/04/01 01:02:06;;;;;;;20.58;12.52;;;14.30;94.80;;;;;;5067564;28;20029;-70
2021/04/01 01:04:32;;;;;;;19.83;13.35;;;14.20;94.80;;;;;;5067644;28;20028;-70
2021/04/01 01:07:00;;;;;;;22.73;13.63;;;14.30;94.90;;;;;;5068695;28;20029;-70
2021/04/01 01:09:25;;;;;;;27.95;15.63;;;14.10;95.10;;;;;;5066029;28;20017;-67
2021/04/01 01:11:51;;;;;;;26.17;15.60;;;14.10;95.20;;;;;;5077153;28;20385;-71
2021/04/01 01:14:17;;;;;;;26.83;16.50;;;14.10;95.60;;;;;;5059194;28;20082;-70
2021/04/01 01:16:42;;;;;;;24.90;15.23;;;14.20;95.60;;;;;;5066557;28;20044;-71
2021/04/01 01:19:10;;;;;;;26.15;15.57;;;14.30;95.30;;;;;;5071544;28;20044;-66
2021/04/01 01:21:36;;;;;;;25.92;16.50;;;14.40;94.80;;;;;;5065834;28;20017;-67
2021/04/01 01:24:02;;;;;;;24.10;14.93;;;14.50;94.50;;;;;;5065749;28;20448;-67
2021/04/01 01:26:28;;;;;;;29.10;15.93;;;14.50;94.30;;;;;;5065407;28;21045;-67
2021/04/01 01:28:54;;;;;;;29.20;16.70;;;14.60;94.40;;;;;;5072546;28;20052;-67
2021/04/01 01:31:21;;;;;;;24.60;15.82;;;14.60;94.50;;;;;;5066490;28;20099;-67
2021/04/01 01:33:47;;;;;;;24.17;15.98;;;14.50;95.50;;;;;;5063204;28;20051;-67
2021/04/01 01:36:14;;;;;;;30.67;16.63;;;14.60;95.50;;;;;;5064781;28;20045;-67
2021/04/01 01:38:40;;;;;;;28.05;15.73;;;14.60;94.90;;;;;;5066681;28;20358;-68
2021/04/01 01:41:06;;;;;;;24.92;13.32;;;14.60;95.30;;;;;;5068420;28;20051;-67
2021/04/01 01:43:34;;;;;;;20.95;13.27;;;14.50;95.80;;;;;;5065709;28;20108;-67
2021/04/01 01:46:00;;;;;;;27.42;14.13;;;14.50;95.90;;;;;;5067713;28;20048;-67
2021/04/01 01:48:26;;;;;;;23.70;14.35;;;14.50;95.60;;;;;;5069298;28;20392;-67
2021/04/01 01:50:52;;;;;;;28.65;15.45;;;14.50;95.40;;;;;;5068366;28;20035;-68
2021/04/01 01:53:18;;;;;;;28.02;16.75;;;14.60;95.60;;;;;;5062653;28;20021;-68
2021/04/01 01:55:44;;;;;;;28.75;16.17;;;14.50;96.30;;;;;;5070268;28;20044;-68
2021/04/01 01:58:10;;;;;;;29.90;18.05;;;14.50;96.40;;;;;;5063870;28;20037;-67
2021/04/01 02:00:40;;;;;;;27.60;17.73;;;14.50;96.50;;;;;;5064152;28;20017;-70
2021/04/01 02:03:08;;;;;;;24.30;15.13;;;14.50;96.50;;;;;;5062901;28;20025;-70
2021/04/01 02:05:35;;;;;;;28.73;16.27;;;14.40;96.80;;;;;;5065490;28;20021;-70
2021/04/01 02:08:01;;;;;;;29.33;15.50;;;14.40;96.40;;;;;;5063124;28;20400;-71
2021/04/01 02:10:29;;;;;;;24.30;14.23;;;14.40;96.40;;;;;;5065745;28;20107;-68
2021/04/01 02:12:57;;;;;;;22.73;14.50;;;14.30;96.90;;;;;;5067142;28;20032;-67
2021/04/01 02:15:27;;;;;;;22.35;14.48;;;14.20;96.80;;;;;;5073015;28;20149;-69
2021/04/01 02:18:09;;;;;;;23.30;14.32;;;14.10;96.70;;;;;;5058665;28;20032;-67
2021/04/01 02:20:41;;;;;;;33.90;18.05;;;14.00;96.90;;;;;;5064424;28;20077;-68
2021/04/01 02:23:09;;;;;;;31.60;17.53;;;14.00;97.50;;;;;;5064422;28;20029;-68
2021/04/01 02:25:35;;;;;;;27.20;16.08;;;13.90;97.90;;;;;;5068877;28;20297;-68
2021/04/01 02:28:01;;;;;;;26.88;17.02;;;13.90;98.00;;;;;;5066308;28;20021;-67
2021/04/01 02:30:27;;;;;;;30.58;18.02;;;13.90;98.00;;;;;;5066231;28;20070;-68
2021/04/01 02:32:52;;;;;;;30.27;16.38;;;13.90;97.90;;;;;;5064876;28;20025;-67
2021/04/01 02:35:18;;;;;;;26.73;16.13;;;14.00;98.00;;;;;;5059873;28;20029;-68
2021/04/01 02:37:44;;;;;;;28.80;17.40;;;14.00;97.80;;;;;;5065247;28;20076;-67
2021/04/01 02:40:10;;;;;;;29.75;18.25;;;14.00;98.00;;;;;;5060544;28;20028;-68
2021/04/01 02:42:36;;;;;;;31.65;17.48;;;14.00;98.70;;;;;;5068348;28;20104;-70
2021/04/01 02:45:02;;;;;;;29.27;18.80;;;14.00;98.70;;;;;;5066034;28;20565;-70
2021/04/01 02:47:27;;;;;;;25.48;16.77;;;14.00;99.00;;;;;;5065450;28;20123;-71
2021/04/01 02:49:53;;;;;;;31.05;17.08;;;13.90;98.80;;;;;;5059943;28;20035;-71
2021/04/01 02:52:19;;;;;;;29.55;18.05;;;13.80;98.80;;;;;;5069378;28;20112;-70
2021/04/01 02:54:44;;;;;;;27.95;17.50;;;13.90;98.60;;;;;;5064383;28;20115;-69
2021/04/01 02:57:15;;;;;;;31.60;17.85;;;14.00;98.20;;;;;;5062102;28;20496;-70
2021/04/01 02:59:41;;;;;;;28.83;17.35;;;13.90;98.70;;;;;;5068951;28;20016;-70
2021/04/01 03:02:08;;;;;;;29.17;17.92;;;13.90;99.10;;;;;;5060236;28;20081;-70
2021/04/01 03:04:34;;;;;;;33.33;18.63;;;13.80;99.50;;;;;;5065628;28;20051;-69
2021/04/01 03:07:00;;;;;;;32.85;19.48;;;13.90;99.40;;;;;;5063465;28;20440;-71
2021/04/01 03:09:25;;;;;;;33.00;18.63;;;13.80;99.50;;;;;;5060017;28;20081;-70
2021/04/01 03:11:51;;;;;;;42.15;21.85;;;13.90;99.60;;;;;;5062012;28;21015;-70
2021/04/01 03:14:17;;;;;;;32.30;18.13;;;13.90;99.00;;;;;;5060710;28;20058;-70
2021/04/01 03:16:42;;;;;;;30.77;16.67;;;13.80;99.30;;;;;;5062256;28;20043;-70
2021/04/01 03:19:08;;;;;;;28.92;17.25;;;13.90;99.60;;;;;;5071272;28;20083;-70
2021/04/01 03:21:34;;;;;;;26.75;17.92;;;13.90;99.60;;;;;;5062265;28;20024;-70
2021/04/01 03:23:59;;;;;;;29.73;19.35;;;13.90;99.90;;;;;;5069897;28;20034;-70
2021/04/01 03:26:26;;;;;;;28.08;18.70;;;14.00;99.90;;;;;;5060279;28;20128;-71
2021/04/01 03:28:52;;;;;;;31.52;19.95;;;13.90;99.90;;;;;;5067265;28;20481;-70
2021/04/01 03:31:18;;;;;;;29.10;18.75;;;14.00;99.90;;;;;;5068111;28;20040;-67
2021/04/01 03:33:44;;;;;;;33.33;19.75;;;14.00;99.90;;;;;;5072084;28;20056;-67
2021/04/01 03:36:09;;;;;;;33.00;19.23;;;13.90;99.90;;;;;;5063136;28;20028;-68
2021/04/01 03:38:35;;;;;;;30.23;16.92;;;14.00;99.70;;;;;;5058324;28;20075;-68
2021/04/01 03:41:01;;;;;;;30.63;18.60;;;14.00;99.60;;;;;;5067256;28;20492;-68
2021/04/01 03:43:26;;;;;;;28.65;17.80;;;13.90;99.90;;;;;;5066456;28;20380;-67
2021/04/01 03:45:52;;;;;;;28.33;17.17;;;13.90;99.90;;;;;;5066382;28;20028;-68
2021/04/01 03:48:19;;;;;;;26.55;16.75;;;13.80;99.90;;;;;;5061242;28;20025;-67
2021/04/01 03:50:45;;;;;;;31.63;17.33;;;13.80;99.90;;;;;;5067441;28;20025;-68
2021/04/01 03:53:12;;;;;;;29.50;16.85;;;13.80;99.50;;;;;;5066493;28;20037;-67
2021/04/01 03:55:41;;;;;;;35.65;18.58;;;13.80;99.20;;;;;;5069050;28;20028;-67
2021/04/01 04:11:31;;;;;;;30.27;17.27;;;13.40;99.90;;;;;;5071057;28;20040;-68
2021/04/01 04:14:06;;;;;;;30.58;19.77;;;13.40;99.90;;;;;;5069611;28;20016;-67
2021/04/01 04:16:32;;;;;;;32.80;20.90;;;13.30;99.90;;;;;;5067640;28;20037;-67
2021/04/01 04:18:58;;;;;;;30.58;19.33;;;13.30;99.90;;;;;;5064118;28;20385;-67
2021/04/01 04:21:23;;;;;;;33.15;19.85;;;13.20;99.90;;;;;;5068041;28;20056;-67
2021/04/01 04:23:50;;;;;;;30.52;20.92;;;13.20;99.90;;;;;;5071772;28;20066;-68
2021/04/01 04:26:16;;;;;;;32.67;18.63;;;13.20;99.90;;;;;;5065072;28;20035;-67
2021/04/01 04:28:43;;;;;;;28.42;17.83;;;13.10;99.90;;;;;;5068625;28;20432;-67
2021/04/01 04:31:10;;;;;;;31.27;19.00;;;13.10;99.90;;;;;;5065866;28;20033;-67
2021/04/01 04:33:36;;;;;;;33.10;19.48;;;13.00;99.90;;;;;;5066897;28;20016;-68
2021/04/01 04:36:02;;;;;;;34.42;20.40;;;13.00;99.90;;;;;;5072357;28;20435;-68
2021/04/01 04:38:28;;;;;;;35.45;22.67;;;12.90;99.90;;;;;;5064864;28;20033;-68
2021/04/01 04:40:56;;;;;;;35.92;20.80;;;12.70;99.90;;;;;;5068206;28;20021;-68
2021/04/01 04:43:24;;;;;;;38.92;22.58;;;12.70;99.90;;;;;;5068989;28;20024;-68
2021/04/01 04:45:50;;;;;;;37.25;21.83;;;12.90;99.90;;;;;;5068495;28;20059;-67
2021/04/01 04:48:16;;;;;;;38.33;22.85;;;12.90;99.90;;;;;;5069039;28;20028;-68
2021/04/01 04:50:41;;;;;;;43.40;24.40;;;12.90;99.90;;;;;;5063633;28;20491;-67
2021/04/01 04:53:07;;;;;;;39.47;23.48;;;12.90;99.90;;;;;;5069581;28;20049;-67
2021/04/01 04:55:33;;;;;;;41.70;23.77;;;12.90;99.90;;;;;;5065923;28;20036;-67
2021/04/01 05:05:53;;;;;;;46.72;25.20;;;12.80;99.90;;;;;;5064451;28;20094;-67
2021/04/01 05:08:19;;;;;;;42.80;23.85;;;12.80;99.90;;;;;;5069993;28;20028;-68
2021/04/01 05:10:44;;;;;;;41.15;23.05;;;12.80;99.90;;;;;;5064385;28;20035;-68
2021/04/01 05:13:11;;;;;;;43.50;23.67;;;12.70;99.90;;;;;;5070103;28;20517;-67
2021/04/01 05:15:46;;;;;;;44.97;25.98;;;12.60;99.90;;;;;;5065192;28;20113;-68
2021/04/01 05:18:34;;;;;;;45.92;25.35;;;12.60;99.90;;;;;;5068124;28;20040;-68
2021/04/01 05:20:59;;;;;;;44.90;26.20;;;12.50;99.90;;;;;;5063880;28;20029;-67
2021/04/01 05:28:58;;;;;;;45.05;26.27;;;12.60;99.90;;;;;;5060984;28;20086;-67
2021/04/01 05:31:24;;;;;;;47.25;25.02;;;12.50;99.90;;;;;;5068198;28;20024;-67
2021/04/01 05:33:50;;;;;;;51.60;26.65;;;12.50;99.90;;;;;;5060699;28;20033;-68
2021/04/01 05:36:21;;;;;;;49.58;28.80;;;12.50;99.90;;;;;;5067829;28;20392;-67
2021/04/01 05:38:47;;;;;;;52.22;27.42;;;12.50;99.90;;;;;;5069890;28;20490;-68
2021/04/01 05:41:13;;;;;;;50.08;25.00;;;12.50;99.90;;;;;;5062674;28;20039;-67
2021/04/01 05:43:47;;;;;;;55.88;28.48;;;12.40;99.90;;;;;;5065932;28;20421;-68
2021/04/01 05:48:51;;;;;;;49.95;28.08;;;12.50;99.90;;;;;;5065582;28;20028;-67
2021/04/01 06:02:19;;;;;;;48.60;26.27;;;12.70;99.90;;;;;;5063155;28;20116;-67
2021/04/01 06:04:52;;;;;;;55.65;27.48;;;12.70;99.90;;;;;;5064198;28;20032;-68
2021/04/01 06:07:30;;;;;;;50.22;27.00;;;12.70;99.90;;;;;;5070910;28;20454;-67
2021/04/01 06:09:57;;;;;;;54.42;26.75;;;12.80;99.90;;;;;;5064461;28;20070;-67
2021/04/01 06:12:30;;;;;;;59.00;29.42;;;12.80;99.90;;;;;;5064140;28;20389;-67
2021/04/01 06:14:57;;;;;;;51.33;28.33;;;12.90;99.90;;;;;;5067505;28;20071;-69
2021/04/01 06:17:28;;;;;;;50.60;26.20;;;12.90;99.90;;;;;;5059992;28;20538;-70
2021/04/01 06:20:00;;;;;;;46.30;27.83;;;13.00;99.90;;;;;;5062648;28;20074;-69
2021/04/01 06:22:27;;;;;;;52.67;27.45;;;13.00;99.90;;;;;;5066335;28;20489;-69
2021/04/01 06:24:53;;;;;;;56.25;28.15;;;13.00;99.90;;;;;;5065935;28;20035;-68
2021/04/01 06:27:39;;;;;;;63.60;30.77;;;13.10;99.90;;;;;;5067237;28;20145;-69
2021/04/01 06:32:50;;;;;;;54.40;28.15;;;13.20;99.90;;;;;;5063114;28;20078;-67
2021/04/01 06:35:24;;;;;;;52.47;28.20;;;13.20;99.90;;;;;;5064289;28;20529;-68
2021/04/01 06:40:39;;;;;;;52.30;29.75;;;13.30;99.90;;;;;;5062628;28;20040;-69
2021/04/01 06:43:13;;;;;;;58.83;30.48;;;13.40;99.90;;;;;;5065546;28;20115;-70
2021/04/01 06:45:42;;;;;;;69.00;31.17;;;13.50;99.90;;;;;;5066888;28;20485;-69
2021/04/01 06:48:12;;;;;;;60.40;30.85;;;13.50;99.90;;;;;;5063521;28;20024;-68
2021/04/01 06:50:38;;;;;;;68.63;33.08;;;13.60;99.90;;;;;;5069747;28;20032;-68
2021/04/01 06:53:15;;;;;;;62.50;33.05;;;13.70;99.90;;;;;;5060414;28;20033;-68
2021/04/01 06:55:54;;;;;;;63.42;34.30;;;13.70;99.90;;;;;;5062293;28;20073;-68
2021/04/01 07:03:26;;;;;;;65.07;34.38;;;13.80;99.90;;;;;;5063921;28;20495;-68
2021/04/01 07:06:03;;;;;;;70.43;34.42;;;13.90;99.90;;;;;;5066274;28;20029;-68
2021/04/01 07:08:40;;;;;;;65.88;34.63;;;14.00;99.90;;;;;;5060195;28;20032;-68
2021/04/01 07:11:12;;;;;;;65.30;32.95;;;14.10;99.90;;;;;;5062736;28;20123;-68
2021/04/01 07:13:49;;;;;;;66.30;34.63;;;14.10;99.90;;;;;;5067538;28;20107;-68
2021/04/01 07:16:33;;;;;;;61.28;33.35;;;14.30;99.90;;;;;;5060108;28;20032;-69
2021/04/01 07:35:57;;;;;;;70.65;35.63;;;14.70;99.60;;;;;;5070926;28;20051;-69
2021/04/01 07:47:04;;;;;;;74.88;36.70;;;15.10;99.90;;;;;;5065568;28;20058;-70
2021/04/01 07:49:31;;;;;;;67.30;34.92;;;15.30;99.90;;;;;;5070473;28;20095;-71
2021/04/01 07:52:06;;;;;;;68.70;39.58;;;15.40;99.90;;;;;;5068945;28;20511;-71
2021/04/01 07:54:45;;;;;;;68.10;35.90;;;15.60;99.90;;;;;;5049966;28;20041;-70
2021/04/01 08:05:26;;;;;;;64.25;30.70;;;16.20;99.90;;;;;;5061228;28;20024;-70
2021/04/01 08:07:55;;;;;;;56.45;26.90;;;16.40;99.90;;;;;;5067923;28;20033;-70
2021/04/01 08:10:27;;;;;;;57.83;24.13;;;16.60;99.60;;;;;;5066958;28;20419;-70
2021/04/01 08:12:59;;;;;;;59.22;25.58;;;16.80;99.40;;;;;;5070218;28;20019;-70
2021/04/01 08:15:26;;;;;;;62.50;29.92;;;16.90;98.90;;;;;;5071319;28;20083;-71
2021/04/01 08:18:41;;;;;;;59.72;28.55;;;17.10;99.30;;;;;;5064012;28;20032;-71
2021/04/01 08:20:47;;;;;;;56.13;29.30;;;17.10;98.80;;;;;;5068571;28;20048;-71
2021/04/01 08:23:20;;;;;;;56.67;26.60;;;17.40;98.00;;;;;;5070021;28;20025;-71
2021/04/01 08:25:55;;;;;;;54.72;26.73;;;17.50;98.90;;;;;;5067164;28;20024;-71
2021/04/01 08:36:40;;;;;;;52.25;26.92;;;18.10;97.60;;;;;;5071757;28;20079;-70
2021/04/01 08:39:06;;;;;;;58.47;25.45;;;18.30;97.30;;;;;;5071972;28;20055;-70
2021/04/01 08:41:35;;;;;;;58.15;25.08;;;18.40;97.40;;;;;;5072665;28;20016;-71
2021/04/01 08:44:22;;;;;;;52.05;26.55;;;18.50;96.80;;;;;;5070342;28;20480;-71
2021/04/01 08:46:48;;;;;;;50.58;25.00;;;18.60;96.40;;;;;;5062547;28;20028;-71
2021/04/01 08:49:40;;;;;;;56.55;27.05;;;18.70;96.00;;;;;;5072741;28;20089;-71
2021/04/01 08:52:14;;;;;;;60.17;25.10;;;18.70;96.00;;;;;;5068675;28;20041;-70
2021/04/01 08:54:55;;;;;;;52.20;25.08;;;18.90;95.90;;;;;;5068770;28;20052;-71
2021/04/01 08:57:23;;;;;;;46.38;23.08;;;19.00;96.50;;;;;;5080898;28;20040;-71
2021/04/01 09:00:01;;;;;;;46.33;22.45;;;19.10;96.00;;;;;;5070243;28;20032;-70
2021/04/01 09:02:31;;;;;;;49.80;23.48;;;19.20;96.00;;;;;;5072438;28;20024;-71
2021/04/01 09:04:59;;;;;;;47.00;21.15;;;19.30;95.20;;;;;;5068952;28;20023;-71
2021/04/01 09:07:33;;;;;;;48.47;22.17;;;19.40;96.80;;;;;;5066487;28;20035;-71
2021/04/01 09:10:10;;;;;;;52.72;22.77;;;19.60;96.50;;;;;;5065940;28;20392;-70
2021/04/01 09:12:56;;;;;;;42.53;19.25;;;19.60;95.10;;;;;;5070732;28;20024;-71
2021/04/01 09:17:49;;;;;;;43.00;18.42;;;19.80;95.80;;;;;;5072174;28;20051;-71
2021/04/01 09:20:25;;;;;;;40.80;18.48;;;19.90;95.10;;;;;;5071648;28;20476;-71
2021/04/01 09:22:53;;;;;;;42.83;18.95;;;20.00;94.70;;;;;;5073753;28;20358;-72
2021/04/01 09:25:20;;;;;;;40.72;19.80;;;20.10;94.00;;;;;;5066842;28;20082;-71
2021/04/01 09:27:47;;;;;;;40.55;16.70;;;20.20;93.90;;;;;;5062307;28;20059;-72
2021/04/01 09:30:14;;;;;;;43.08;18.17;;;20.40;94.00;;;;;;5068099;28;20493;-71
2021/04/01 09:32:40;;;;;;;43.40;18.92;;;20.50;93.80;;;;;;5070195;28;20423;-72
2021/04/01 09:35:08;;;;;;;41.92;18.08;;;20.60;94.40;;;;;;5074676;28;20111;-73
2021/04/01 09:37:33;;;;;;;45.22;18.60;;;20.70;93.40;;;;;;5075269;28;20439;-72
2021/04/01 09:40:09;;;;;;;42.20;21.20;;;20.80;92.80;;;;;;5063369;28;20016;-72
2021/04/01 09:42:43;;;;;;;45.63;19.65;;;20.90;92.70;;;;;;5065352;28;20489;-73
2021/04/01 09:45:13;;;;;;;47.78;21.40;;;20.90;92.60;;;;;;5061430;28;20104;-71
2021/04/01 09:47:55;;;;;;;40.80;21.17;;;21.00;92.40;;;;;;5057165;28;20294;-73
2021/04/01 09:50:23;;;;;;;49.97;21.50;;;21.10;93.10;;;;;;5069112;28;20028;-72
2021/04/01 09:52:58;;;;;;;45.28;20.90;;;21.30;93.10;;;;;;5072782;28;20021;-73
2021/04/01 09:55:24;;;;;;;49.63;24.45;;;21.40;92.40;;;;;;5067820;28;20043;-72
2021/04/01 09:57:51;;;;;;;50.95;23.98;;;21.40;93.00;;;;;;5062218;28;20044;-71
2021/04/01 10:03:11;;;;;;;62.38;28.10;;;21.50;92.40;;;;;;5068068;28;20028;-72
2021/04/01 10:05:42;;;;;;;62.58;26.55;;;21.60;93.10;;;;;;5071568;28;20073;-71
2021/04/01 10:08:21;;;;;;;60.53;28.47;;;21.80;93.70;;;;;;5055594;28;20031;-72
2021/04/01 10:10:50;;;;;;;62.53;27.88;;;21.80;92.40;;;;;;5067341;28;20137;-72
2021/04/01 10:13:27;;;;;;;62.20;25.67;;;21.80;91.40;;;;;;5065813;28;20029;-73
2021/04/01 10:15:54;;;;;;;63.38;27.67;;;21.80;90.40;;;;;;5062734;28;20021;-72
2021/04/01 10:18:36;;;;;;;58.78;27.67;;;21.90;90.90;;;;;;5071946;28;20555;-72
2021/04/01 10:21:07;;;;;;;57.30;26.15;;;22.00;91.50;;;;;;5068640;28;20030;-72
2021/04/01 10:24:06;;;;;;;53.47;25.88;;;22.10;91.40;;;;;;5063966;28;20051;-72
2021/04/01 10:26:40;;;;;;;60.95;30.42;;;22.20;91.30;;;;;;5060182;28;20034;-72
2021/04/01 10:29:16;;;;;;;67.20;28.30;;;22.30;90.80;;;;;;5060375;28;20028;-73
2021/04/01 10:31:47;;;;;;;62.88;30.58;;;22.30;89.10;;;;;;5069850;28;20016;-72
2021/04/01 10:34:32;;;;;;;61.25;30.23;;;22.20;89.40;;;;;;5068458;28;20535;-72
2021/04/01 10:37:05;;;;;;;64.30;29.92;;;22.30;90.90;;;;;;5064229;28;20418;-73
2021/04/01 10:39:36;;;;;;;55.20;29.75;;;22.40;90.70;;;;;;5074193;28;20070;-72
2021/04/01 10:42:04;;;;;;;64.00;30.85;;;22.40;89.40;;;;;;5070606;28;20024;-72
2021/04/01 10:44:31;;;;;;;63.58;31.85;;;22.40;90.40;;;;;;5071639;28;20025;-72
2021/04/01 10:47:03;;;;;;;57.92;29.45;;;22.40;90.90;;;;;;5060410;28;20020;-72
2021/04/01 10:49:37;;;;;;;63.38;31.02;;;22.40;89.00;;;;;;5068719;28;20024;-72
2021/04/01 10:52:05;;;;;;;63.78;29.25;;;22.50;89.50;;;;;;5068597;28;20029;-70
2021/04/01 10:54:39;;;;;;;66.05;32.75;;;22.50;88.70;;;;;;5064419;28;20063;-72
2021/04/01 10:57:26;;;;;;;67.60;32.47;;;22.50;88.90;;;;;;5062535;28;20072;-71
2021/04/01 10:59:52;;;;;;;61.58;32.00;;;22.60;89.70;;;;;;5060882;28;20021;-72
2021/04/01 11:02:21;;;;;;;61.88;31.48;;;22.60;86.00;;;;;;5064742;28;20028;-72
2021/04/01 11:04:56;;;;;;;63.08;32.25;;;22.50;84.10;;;;;;5069511;28;20032;-72
2021/04/01 11:07:23;;;;;;;64.75;29.05;;;22.60;86.30;;;;;;5058984;28;20038;-72
2021/04/01 11:09:50;;;;;;;56.33;29.45;;;22.60;85.90;;;;;;5065706;28;20085;-74
2021/04/01 11:12:19;;;;;;;65.55;33.20;;;22.70;86.10;;;;;;5069783;28;20031;-72
2021/04/01 11:15:01;;;;;;;73.95;35.08;;;22.70;86.50;;;;;;5063796;28;20067;-72
2021/04/01 11:17:30;;;;;;;65.95;34.67;;;22.70;85.30;;;;;;5066065;28;20826;-73
2021/04/01 11:19:59;;;;;;;78.43;37.63;;;22.60;86.40;;;;;;5067923;28;20590;-73
2021/04/01 11:22:26;;;;;;;70.50;36.28;;;22.50;86.80;;;;;;5071815;28;20028;-73
2021/04/01 11:24:51;;;;;;;73.78;37.55;;;22.50;85.90;;;;;;5072519;28;20035;-73
2021/04/01 11:27:19;;;;;;;78.07;37.33;;;22.60;84.60;;;;;;5055938;28;20393;-73
2021/04/01 11:29:50;;;;;;;74.00;37.55;;;22.60;82.10;;;;;;5063573;28;20029;-70
2021/04/01 11:32:25;;;;;;;71.47;38.88;;;22.50;81.80;;;;;;5066753;28;20036;-74
2021/04/01 11:34:53;;;;;;;80.78;41.38;;;22.50;85.60;;;;;;5067915;28;20415;-71
2021/04/01 11:37:22;;;;;;;82.47;42.67;;;22.50;84.30;;;;;;5075560;28;20036;-73
2021/04/01 11:39:50;;;;;;;76.38;40.85;;;22.40;84.30;;;;;;5067805;28;20039;-72
2021/04/01 11:42:19;;;;;;;84.68;45.53;;;22.50;84.40;;;;;;5069021;28;20044;-73
2021/04/01 11:44:45;;;;;;;81.10;46.50;;;22.50;85.00;;;;;;5069023;28;20071;-73
2021/04/01 11:47:16;;;;;;;83.43;44.38;;;22.30;83.80;;;;;;5069734;28;20024;-72
2021/04/01 11:49:43;;;;;;;77.70;43.05;;;22.40;85.00;;;;;;5072006;28;20021;-72
2021/04/01 11:52:10;;;;;;;88.80;46.65;;;22.40;86.20;;;;;;5066477;28;20031;-73
2021/04/01 11:54:37;;;;;;;84.38;42.38;;;22.40;87.00;;;;;;5069893;28;20036;-71
2021/04/01 11:57:03;;;;;;;85.40;45.53;;;22.40;86.80;;;;;;5072212;28;20047;-72
2021/04/01 11:59:33;;;;;;;83.57;49.33;;;22.40;89.00;;;;;;5062629;28;20025;-72
2021/04/01 12:02:19;;;;;;;89.00;49.08;;;22.40;87.20;;;;;;5064655;28;20562;-72
2021/04/01 12:04:46;;;;;;;92.13;51.90;;;22.40;89.90;;;;;;5064520;28;20063;-73
2021/04/01 12:07:12;;;;;;;90.18;44.78;;;22.40;86.70;;;;;;5063447;28;20482;-71
2021/04/01 12:09:38;;;;;;;86.10;50.58;;;22.30;86.70;;;;;;5063736;28;20028;-73
2021/04/01 12:12:04;;;;;;;87.97;48.30;;;22.20;87.60;;;;;;5069557;28;20024;-73
2021/04/01 12:14:35;;;;;;;86.35;50.97;;;22.30;87.10;;;;;;5074085;28;20085;-73
2021/04/01 12:17:03;;;;;;;99.00;56.47;;;22.20;88.10;;;;;;5069344;28;20016;-72
2021/04/01 12:19:29;;;;;;;91.72;56.63;;;22.20;87.50;;;;;;5075064;28;20028;-72
2021/04/01 12:21:55;;;;;;;91.28;53.05;;;22.20;90.30;;;;;;5070182;28;20040;-73
2021/04/01 12:24:21;;;;;;;87.63;53.03;;;22.30;88.90;;;;;;5066409;28;20368;-73
2021/04/01 12:26:53;;;;;;;92.65;58.22;;;22.30;88.50;;;;;;5066408;28;20044;-71
2021/04/01 12:29:19;;;;;;;93.55;55.17;;;22.30;88.20;;;;;;5064772;28;20062;-73
2021/04/01 12:31:51;;;;;;;85.75;50.20;;;22.30;89.00;;;;;;5071912;28;20032;-72
2021/04/01 12:34:33;;;;;;;89.45;53.47;;;22.10;87.60;;;;;;5071385;28;20052;-73
2021/04/01 12:37:03;;;;;;;85.93;51.13;;;22.10;86.90;;;;;;5066377;28;20028;-71
2021/04/01 12:39:34;;;;;;;91.90;51.75;;;22.00;88.20;;;;;;5066939;28;20024;-73
2021/04/01 12:42:00;;;;;;;94.43;53.95;;;22.00;87.50;;;;;;5071158;28;20116;-70
2021/04/01 12:44:43;;;;;;;92.38;55.42;;;22.00;89.60;;;;;;5073134;28;20481;-72
2021/04/01 12:47:09;;;;;;;90.13;54.25;;;22.00;88.20;;;;;;5064515;28;20491;-71
2021/04/01 12:49:36;;;;;;;90.65;54.83;;;22.00;87.70;;;;;;5067257;28;20115;-71
2021/04/01 12:52:04;;;;;;;98.07;57.47;;;22.10;89.40;;;;;;5068642;28;20107;-72
2021/04/01 12:54:33;;;;;;;92.53;54.63;;;22.10;87.90;;;;;;5068919;28;20082;-72
2021/04/01 12:57:08;;;;;;;95.28;60.25;;;22.10;89.90;;;;;;5063091;28;20036;-71
2021/04/01 12:59:41;;;;;;;100.57;62.22;;;21.90;88.40;;;;;;5066789;28;20020;-72
2021/04/01 13:02:09;;;;;;;95.57;55.83;;;21.90;88.50;;;;;;5068836;28;20492;-71
2021/04/01 13:04:36;;;;;;;102.38;60.88;;;22.00;88.70;;;;;;5072227;28;21142;-72
2021/04/01 13:09:43;;;;;;;96.63;59.67;;;21.80;88.60;;;;;;5064754;28;20036;-73
2021/04/01 13:12:11;;;;;;;88.57;53.30;;;21.70;88.60;;;;;;5067894;28;20017;-71
2021/04/01 13:14:37;;;;;;;82.18;48.00;;;21.60;89.90;;;;;;5073771;28;20028;-71
2021/04/01 13:17:03;;;;;;;79.97;48.15;;;21.50;87.60;;;;;;5067558;28;20512;-72
2021/04/01 13:19:29;;;;;;;69.00;42.97;;;21.40;88.20;;;;;;5068424;28;20020;-71
2021/04/01 13:22:07;;;;;;;71.57;41.75;;;21.30;87.40;;;;;;5065670;28;20467;-70
2021/04/01 13:27:09;;;;;;;58.75;33.97;;;21.30;88.50;;;;;;5066922;28;20118;-68
2021/04/01 13:29:37;;;;;;;56.83;34.28;;;21.30;87.40;;;;;;5060757;28;20052;-68
2021/04/01 13:34:39;;;;;;;52.40;32.28;;;21.30;88.80;;;;;;5066471;28;20044;-68
2021/04/01 13:37:17;;;;;;;61.10;36.40;;;21.40;87.80;;;;;;5066892;28;20032;-68
2021/04/01 13:39:58;;;;;;;53.25;32.33;;;21.40;86.40;;;;;;5067618;28;20017;-69
2021/04/01 13:42:29;;;;;;;43.03;26.30;;;21.50;87.90;;;;;;5058634;28;20470;-68
2021/04/01 13:44:59;;;;;;;45.53;27.65;;;21.40;86.50;;;;;;5070337;28;20029;-68
2021/04/01 13:47:27;;;;;;;41.67;26.05;;;21.30;87.10;;;;;;5061287;28;20097;-69
2021/04/01 13:49:55;;;;;;;45.90;26.40;;;21.30;87.70;;;;;;5064062;28;20020;-69
2021/04/01 13:52:41;;;;;;;42.28;23.85;;;21.30;87.50;;;;;;5065944;28;20040;-69
2021/04/01 13:55:17;;;;;;;40.55;22.52;;;21.20;85.80;;;;;;5066722;28;20063;-70
2021/04/01 14:11:19;;;;;;;28.85;14.88;;;21.00;86.90;;;;;;5063677;28;20029;-69
2021/04/01 14:13:45;;;;;;;23.98;13.15;;;21.00;87.00;;;;;;5065334;28;20037;-69
2021/04/01 14:16:13;;;;;;;23.48;13.23;;;21.00;85.60;;;;;;5068852;28;20477;-70
2021/04/01 14:18:43;;;;;;;20.55;11.77;;;21.00;86.00;;;;;;5065444;28;20163;-68
2021/04/01 14:21:08;;;;;;;32.03;11.68;;;21.00;86.50;;;;;;5064774;28;20468;-70
2021/04/01 14:23:36;;;;;;;21.27;10.27;;;21.00;86.40;;;;;;5063438;28;20041;-68
2021/04/01 14:26:58;;;;;;;21.45;8.95;;;20.90;87.20;;;;;;5069899;28;20035;-70
2021/04/01 14:28:49;;;;;;;20.58;9.50;;;20.90;85.90;;;;;;5056579;28;20032;-70
2021/04/01 14:31:16;;;;;;;20.40;9.68;;;20.90;88.30;;;;;;5068596;28;20024;-70
2021/04/01 14:33:43;;;;;;;19.15;8.43;;;20.80;86.10;;;;;;5066094;28;20048;-71
2021/04/01 14:36:11;;;;;;;18.67;8.65;;;20.80;87.10;;;;;;5060060;28;20509;-70
2021/04/01 14:38:39;;;;;;;17.60;8.30;;;20.80;88.50;;;;;;5062541;28;20051;-68